createdAt,value
2018-04-22T00:00:23.673Z,15.40
2018-04-22T00:02:27.122Z,15.40
2018-04-22T00:04:29.716Z,15.40
2018-04-22T00:06:32.344Z,15.40
2018-04-22T00:08:34.947Z,15.40
2018-04-22T00:10:37.552Z,15.30
2018-04-22T00:12:40.212Z,15.30
2018-04-22T00:14:42.798Z,15.30
2018-04-22T00:16:45.391Z,15.20
2018-04-22T00:18:48.774Z,15.20
2018-04-22T00:20:51.381Z,15.20
2018-04-22T00:22:54.000Z,15.10
2018-04-22T00:24:56.600Z,15.00
2018-04-22T00:26:59.959Z,14.90
2018-04-22T00:29:02.564Z,14.90
2018-04-22T00:31:05.151Z,14.90
2018-04-22T00:33:08.643Z,14.80
2018-04-22T00:35:11.997Z,14.80
2018-04-22T00:37:14.592Z,14.80
2018-04-22T00:39:17.192Z,14.80
2018-04-22T00:41:20.548Z,14.80
2018-04-22T00:43:23.191Z,14.80
2018-04-22T00:45:25.832Z,14.80
2018-04-22T00:47:29.195Z,14.80
2018-04-22T00:49:31.820Z,14.80
2018-04-22T00:51:34.447Z,14.70
2018-04-22T00:53:48.805Z,14.70
2018-04-22T00:55:51.400Z,14.70
2018-04-22T00:57:54.009Z,14.70
2018-04-22T00:59:56.616Z,14.70
2018-04-22T01:01:59.201Z,14.70
2018-04-22T01:04:01.822Z,14.60
2018-04-22T01:06:04.426Z,14.60
2018-04-22T01:08:07.036Z,14.60
2018-04-22T01:10:10.396Z,14.50
2018-04-22T01:12:13.004Z,14.50
2018-04-22T01:14:16.392Z,14.40
2018-04-22T01:16:19.747Z,14.40
2018-04-22T01:18:22.352Z,14.30
2018-04-22T01:20:25.712Z,14.30
2018-04-22T01:22:28.325Z,14.30
2018-04-22T01:24:31.763Z,14.40
2018-04-22T01:26:34.427Z,14.40
2018-04-22T01:28:37.052Z,14.40
2018-04-22T01:30:39.644Z,14.30
2018-04-22T01:32:43.004Z,14.20
2018-04-22T01:34:45.605Z,14.20
2018-04-22T01:36:48.215Z,14.20
2018-04-22T01:38:50.833Z,14.20
2018-04-22T01:40:53.423Z,14.20
2018-04-22T01:42:56.024Z,14.20
2018-04-22T01:44:59.392Z,14.10
2018-04-22T01:47:01.988Z,14.10
2018-04-22T01:49:05.375Z,14.00
2018-04-22T01:51:08.728Z,14.00
2018-04-22T01:53:11.368Z,14.00
2018-04-22T01:55:13.961Z,13.90
2018-04-22T01:57:16.552Z,13.90
2018-04-22T01:59:19.958Z,13.80
2018-04-22T02:01:23.346Z,13.80
2018-04-22T02:03:25.969Z,13.80
2018-04-22T02:05:28.604Z,13.90
2018-04-22T02:07:31.198Z,13.80
2018-04-22T02:09:34.619Z,13.60
2018-04-22T02:11:37.221Z,13.60
2018-04-22T02:13:39.883Z,13.70
2018-04-22T02:15:42.474Z,13.70
2018-04-22T02:17:45.899Z,13.70
2018-04-22T02:19:48.508Z,13.70
2018-04-22T02:21:51.157Z,13.70
2018-04-22T02:23:54.555Z,13.60
2018-04-22T02:25:58.172Z,13.60
2018-04-22T02:28:00.786Z,13.60
2018-04-22T02:30:03.389Z,13.60
2018-04-22T02:32:06.112Z,13.50
2018-04-22T02:34:08.725Z,13.50
2018-04-22T02:36:11.325Z,13.60
2018-04-22T02:38:14.700Z,13.50
2018-04-22T02:40:17.320Z,13.50
2018-04-22T02:42:19.907Z,13.50
2018-04-22T02:44:22.604Z,13.40
2018-04-22T02:46:25.208Z,13.50
2018-04-22T02:48:28.581Z,13.50
2018-04-22T02:50:31.317Z,13.50
2018-04-22T02:52:33.943Z,13.50
2018-04-22T02:54:36.556Z,13.50
2018-04-22T02:56:39.216Z,13.40
2018-04-22T02:58:42.579Z,13.50
2018-04-22T03:00:45.213Z,13.40
2018-04-22T03:02:47.813Z,13.50
2018-04-22T03:04:50.473Z,13.40
2018-04-22T03:06:53.071Z,13.40
2018-04-22T03:08:55.668Z,13.40
2018-04-22T03:10:59.047Z,13.30
2018-04-22T03:13:01.712Z,13.30
2018-04-22T03:15:04.337Z,13.20
2018-04-22T03:17:06.965Z,13.20
2018-04-22T03:19:09.593Z,13.20
2018-04-22T03:21:12.316Z,13.10
2018-04-22T03:23:14.929Z,13.00
2018-04-22T03:25:17.536Z,13.00
2018-04-22T03:27:20.132Z,13.00
2018-04-22T03:29:22.750Z,13.10
2018-04-22T03:31:25.376Z,13.10
2018-04-22T03:33:28.007Z,13.10
2018-04-22T03:35:30.628Z,13.10
2018-04-22T03:37:33.216Z,13.10
2018-04-22T03:39:35.832Z,13.10
2018-04-22T03:41:38.492Z,13.10
2018-04-22T03:43:41.100Z,13.00
2018-04-22T03:45:43.721Z,13.00
2018-04-22T03:47:46.318Z,13.10
2018-04-22T03:49:49.695Z,13.10
2018-04-22T03:51:52.283Z,13.10
2018-04-22T03:53:55.680Z,13.00
2018-04-22T03:55:59.044Z,13.00
2018-04-22T03:58:01.636Z,13.00
2018-04-22T04:00:05.015Z,13.10
2018-04-22T04:02:07.608Z,13.10
2018-04-22T04:04:10.964Z,13.00
2018-04-22T04:06:13.576Z,13.00
2018-04-22T04:08:16.936Z,12.90
2018-04-22T04:10:19.903Z,12.90
2018-04-22T04:12:22.503Z,12.80
2018-04-22T04:14:25.119Z,12.80
2018-04-22T04:16:27.741Z,12.70
2018-04-22T04:21:25.720Z,12.50
2018-04-22T04:23:40.221Z,12.50
2018-04-22T04:25:54.683Z,12.50
2018-04-22T04:27:57.273Z,12.50
2018-04-22T04:29:59.896Z,12.50
2018-04-22T04:32:02.506Z,12.60
2018-04-22T04:34:05.102Z,12.60
2018-04-22T04:36:07.841Z,12.50
2018-04-22T04:38:10.386Z,12.40
2018-04-22T04:40:13.003Z,12.30
2018-04-22T04:42:15.603Z,12.30
2018-04-22T04:44:18.204Z,12.30
2018-04-22T04:46:20.808Z,12.30
2018-04-22T04:48:24.159Z,12.40
2018-04-22T04:50:26.886Z,12.40
2018-04-22T04:52:29.483Z,12.40
2018-04-22T04:54:32.076Z,12.40
2018-04-22T04:56:34.753Z,12.40
2018-04-22T04:58:37.459Z,12.40
2018-04-22T05:00:40.067Z,12.20
2018-04-22T05:02:42.680Z,12.20
2018-04-22T05:04:45.302Z,12.30
2018-04-22T05:06:48.689Z,12.30
2018-04-22T05:08:52.056Z,12.30
2018-04-22T05:10:54.839Z,12.30
2018-04-22T05:12:57.436Z,12.40
2018-04-22T05:15:00.803Z,12.40
2018-04-22T05:17:03.416Z,12.40
2018-04-22T05:19:06.017Z,12.40
2018-04-22T05:21:08.636Z,12.60
2018-04-22T05:23:11.236Z,12.60
2018-04-22T05:25:13.859Z,12.70
2018-04-22T05:27:16.484Z,12.70
2018-04-22T05:29:19.084Z,12.70
2018-04-22T05:31:21.708Z,12.70
2018-04-22T05:33:24.328Z,12.70
2018-04-22T05:35:26.924Z,12.80
2018-04-22T05:37:29.565Z,12.80
2018-04-22T05:39:32.437Z,12.90
2018-04-22T05:41:35.816Z,13.00
2018-04-22T05:43:40.140Z,13.00
2018-04-22T05:45:43.512Z,13.10
2018-04-22T05:47:46.119Z,13.00
2018-04-22T05:49:48.719Z,13.20
2018-04-22T05:51:51.574Z,13.20
2018-04-22T05:53:54.174Z,13.30
2018-04-22T05:55:56.784Z,13.40
2018-04-22T05:57:59.600Z,13.40
2018-04-22T06:00:02.211Z,13.40
2018-04-22T06:02:04.812Z,13.50
2018-04-22T06:04:07.410Z,13.60
2018-04-22T06:06:10.776Z,13.70
2018-04-22T06:08:13.392Z,13.70
2018-04-22T06:10:15.995Z,13.80
2018-04-22T06:12:18.665Z,13.80
2018-04-22T06:14:21.263Z,13.90
2018-04-22T06:16:23.880Z,13.90
2018-04-22T06:18:27.266Z,14.00
2018-04-22T06:20:30.688Z,14.00
2018-04-22T06:22:33.307Z,14.00
2018-04-22T06:24:35.941Z,14.00
2018-04-22T06:26:39.534Z,14.00
2018-04-22T06:28:42.115Z,14.10
2018-04-22T06:30:44.732Z,14.10
2018-04-22T06:32:47.466Z,14.20
2018-04-22T06:34:50.063Z,14.20
2018-04-22T06:36:52.673Z,14.30
2018-04-22T06:38:56.027Z,14.50
2018-04-22T06:40:58.649Z,14.50
2018-04-22T06:43:02.037Z,14.70
2018-04-22T06:45:05.440Z,14.80
2018-04-22T06:47:08.889Z,14.90
2018-04-22T06:49:11.505Z,14.80
2018-04-22T06:51:14.908Z,15.00
2018-04-22T06:53:18.446Z,15.00
2018-04-22T06:55:21.134Z,15.10
2018-04-22T06:57:23.740Z,15.20
2018-04-22T06:59:27.096Z,15.30
2018-04-22T07:01:29.712Z,15.30
2018-04-22T07:03:33.113Z,15.50
2018-04-22T07:05:35.709Z,15.40
2018-04-22T07:07:38.501Z,15.50
2018-04-22T07:09:41.122Z,15.60
2018-04-22T07:11:44.503Z,15.70
2018-04-22T07:13:47.105Z,15.70
2018-04-22T07:15:50.472Z,15.80
2018-04-22T07:17:53.940Z,15.80
2018-04-22T07:19:56.532Z,15.90
2018-04-22T07:21:59.196Z,16.00
2018-04-22T07:24:01.866Z,16.10
2018-04-22T07:26:05.372Z,16.20
2018-04-22T07:28:08.000Z,16.10
2018-04-22T07:30:10.605Z,16.30
2018-04-22T07:32:13.261Z,16.30
2018-04-22T07:34:16.585Z,16.30
2018-04-22T07:36:19.180Z,16.30
2018-04-22T07:38:21.782Z,16.40
2018-04-22T07:40:24.384Z,16.50
2018-04-22T07:42:27.068Z,16.60
2018-04-22T07:44:30.388Z,16.80
2018-04-22T07:46:33.007Z,16.70
2018-04-22T07:48:35.643Z,16.80
2018-04-22T07:50:38.836Z,16.90
2018-04-22T07:52:42.203Z,17.10
2018-04-22T07:54:44.795Z,17.00
2018-04-22T07:56:47.456Z,17.10
2018-04-22T07:58:50.049Z,17.10
2018-04-22T08:00:52.640Z,17.20
2018-04-22T08:02:55.279Z,17.20
2018-04-22T08:04:57.863Z,17.30
2018-04-22T08:07:00.495Z,17.40
2018-04-22T08:09:03.107Z,17.50
2018-04-22T08:11:05.710Z,17.50
2018-04-22T08:13:09.112Z,17.60
2018-04-22T08:15:11.773Z,17.60
2018-04-22T08:17:15.144Z,17.70
2018-04-22T08:19:17.761Z,17.70
2018-04-22T08:21:20.364Z,17.80
2018-04-22T08:23:22.987Z,17.90
2018-04-22T08:25:26.363Z,18.00
2018-04-22T08:27:29.022Z,18.00
2018-04-22T08:29:31.763Z,18.10
2018-04-22T08:31:34.523Z,18.00
2018-04-22T08:33:38.251Z,18.10
2018-04-22T08:35:40.984Z,18.10
2018-04-22T08:37:43.786Z,18.20
2018-04-22T08:39:46.415Z,18.30
2018-04-22T08:41:49.350Z,18.40
2018-04-22T08:43:52.192Z,18.50
2018-04-22T08:45:55.000Z,18.60
2018-04-22T08:47:58.546Z,18.70
2018-04-22T08:50:01.137Z,18.70
2018-04-22T08:52:03.813Z,18.80
2018-04-22T08:54:06.431Z,18.80
2018-04-22T08:56:09.294Z,18.80
2018-04-22T08:58:12.712Z,18.80
2018-04-22T09:00:15.339Z,18.90
2018-04-22T09:02:17.960Z,18.90
2018-04-22T09:04:20.549Z,18.90
2018-04-22T09:06:23.234Z,18.90
2018-04-22T09:08:25.876Z,18.90
2018-04-22T09:10:28.484Z,19.00
2018-04-22T09:12:31.096Z,19.00
2018-04-22T09:14:33.692Z,19.10
2018-04-22T09:16:36.303Z,19.20
2018-04-22T09:18:38.915Z,19.30
2018-04-22T09:20:41.501Z,19.30
2018-04-22T09:22:44.892Z,19.50
2018-04-22T09:24:48.263Z,19.50
2018-04-22T09:26:50.925Z,19.50
2018-04-22T09:28:53.535Z,19.60
2018-04-22T09:30:56.885Z,19.70
2018-04-22T09:32:59.497Z,19.70
2018-04-22T09:35:02.853Z,20.10
2018-04-22T09:37:05.447Z,20.00
2018-04-22T09:39:08.074Z,20.10
2018-04-22T09:41:10.822Z,20.00
2018-04-22T09:43:14.254Z,20.10
2018-04-22T09:45:16.844Z,20.00
2018-04-22T09:47:20.233Z,20.20
2018-04-22T09:49:22.822Z,20.20
2018-04-22T09:51:25.517Z,20.30
2018-04-22T09:53:28.194Z,20.30
2018-04-22T09:55:30.748Z,20.40
2018-04-22T09:57:33.797Z,20.30
2018-04-22T09:59:36.880Z,20.40
2018-04-22T10:01:39.484Z,20.50
2018-04-22T10:03:42.099Z,20.60
2018-04-22T10:05:50.623Z,21.10
2018-04-22T10:07:53.323Z,21.10
2018-04-22T10:09:56.828Z,21.10
2018-04-22T10:11:59.520Z,21.10
2018-04-22T10:14:02.141Z,21.10
2018-04-22T10:16:06.196Z,21.20
2018-04-22T10:18:08.815Z,21.20
2018-04-22T10:20:12.185Z,21.30
2018-04-22T10:22:14.872Z,21.30
2018-04-22T10:24:17.470Z,21.40
2018-04-22T10:26:20.981Z,21.70
2018-04-22T10:28:23.590Z,21.70
2018-04-22T10:30:26.209Z,21.90
2018-04-22T10:32:29.566Z,22.10
2018-04-22T10:34:32.191Z,22.00
2018-04-22T10:36:34.771Z,22.10
2018-04-22T10:38:37.369Z,22.20
2018-04-22T10:40:46.375Z,22.40
2018-04-22T10:42:54.728Z,22.50
2018-04-22T10:45:01.215Z,22.70
2018-04-22T10:47:08.181Z,22.90
2018-04-22T10:49:19.136Z,22.90
2018-04-22T10:51:25.995Z,22.80
2018-04-22T10:53:31.621Z,22.90
2018-04-22T10:55:34.210Z,22.90
2018-04-22T10:57:36.795Z,22.90
2018-04-22T10:59:39.769Z,22.80
2018-04-22T11:01:42.367Z,22.80
2018-04-22T11:03:44.981Z,22.70
2018-04-22T11:05:47.604Z,22.70
2018-04-22T11:07:50.202Z,22.60
2018-04-22T11:09:52.826Z,22.50
2018-04-22T11:11:55.424Z,22.60
2018-04-22T11:13:58.069Z,22.60
2018-04-22T11:16:00.676Z,22.40
2018-04-22T11:18:03.264Z,22.40
2018-04-22T11:20:05.962Z,22.30
2018-04-22T11:22:09.413Z,22.20
2018-04-22T11:24:11.995Z,22.20
2018-04-22T11:26:14.581Z,22.40
2018-04-22T11:28:17.191Z,22.40
2018-04-22T11:30:19.938Z,22.40
2018-04-22T11:32:22.535Z,22.50
2018-04-22T11:34:26.016Z,22.80
2018-04-22T11:36:29.379Z,22.80
2018-04-22T11:38:31.977Z,22.70
2018-04-22T11:40:34.613Z,22.90
2018-04-22T11:42:37.968Z,23.20
2018-04-22T11:44:41.340Z,23.20
2018-04-22T11:46:43.927Z,23.20
2018-04-22T11:48:47.360Z,23.50
2018-04-22T11:50:49.993Z,23.50
2018-04-22T11:52:53.037Z,23.70
2018-04-22T11:54:59.466Z,23.80
2018-04-22T11:57:09.133Z,23.90
2018-04-22T11:59:15.157Z,23.90
2018-04-22T12:01:21.220Z,23.90
2018-04-22T12:03:26.994Z,23.90
2018-04-22T12:05:30.975Z,24.10
2018-04-22T12:07:37.506Z,24.10
2018-04-22T12:09:45.380Z,24.10
2018-04-22T12:11:48.247Z,24.10
2018-04-22T12:13:50.864Z,24.00
2018-04-22T12:15:54.279Z,23.80
2018-04-22T12:17:59.116Z,23.80
2018-04-22T12:20:01.819Z,23.70
2018-04-22T12:22:04.773Z,23.60
2018-04-22T12:24:07.366Z,23.50
2018-04-22T12:26:09.984Z,23.50
2018-04-22T12:28:13.432Z,23.40
2018-04-22T12:30:16.080Z,23.40
2018-04-22T12:32:18.699Z,23.50
2018-04-22T12:34:21.302Z,23.50
2018-04-22T12:36:23.930Z,23.50
2018-04-22T12:38:26.609Z,23.50
2018-04-22T12:40:29.997Z,23.40
2018-04-22T12:42:32.619Z,23.40
2018-04-22T12:44:37.650Z,23.50
2018-04-22T12:46:41.027Z,23.40
2018-04-22T12:48:47.500Z,23.70
2018-04-22T12:50:50.130Z,23.80
2018-04-22T12:52:52.778Z,24.00
2018-04-22T12:54:55.392Z,24.10
2018-04-22T12:56:58.000Z,24.20
2018-04-22T12:59:00.651Z,24.10
2018-04-22T13:01:03.289Z,24.20
2018-04-22T13:03:05.906Z,24.20
2018-04-22T13:05:10.206Z,24.30
2018-04-22T13:07:12.841Z,24.30
2018-04-22T13:09:15.444Z,24.30
2018-04-22T13:11:18.052Z,24.30
2018-04-22T13:13:20.659Z,24.30
2018-04-22T13:15:23.278Z,24.30
2018-04-22T13:17:25.877Z,24.30
2018-04-22T13:19:28.516Z,24.40
2018-04-22T13:21:32.936Z,24.30
2018-04-22T13:23:35.535Z,24.30
2018-04-22T13:25:38.172Z,24.20
2018-04-22T13:27:40.770Z,24.20
2018-04-22T13:29:43.399Z,24.20
2018-04-22T13:31:46.780Z,24.20
2018-04-22T13:33:49.476Z,24.20
2018-04-22T13:35:52.105Z,24.30
2018-04-22T13:37:54.708Z,24.40
2018-04-22T13:39:57.297Z,24.40
2018-04-22T13:41:59.921Z,24.30
2018-04-22T13:44:02.656Z,24.30
2018-04-22T13:46:05.276Z,24.30
2018-04-22T13:48:07.868Z,24.30
2018-04-22T13:50:10.480Z,24.20
2018-04-22T13:52:13.093Z,24.20
2018-04-22T13:54:15.715Z,24.40
2018-04-22T13:56:19.094Z,24.50
2018-04-22T13:58:22.483Z,24.60
2018-04-22T14:00:25.084Z,24.50
2018-04-22T14:02:27.707Z,24.60
2018-04-22T14:04:30.324Z,24.60
2018-04-22T14:06:32.988Z,24.60
2018-04-22T14:08:36.359Z,24.60
2018-04-22T14:10:38.959Z,24.60
2018-04-22T14:12:42.353Z,24.60
2018-04-22T14:14:45.716Z,24.60
2018-04-22T14:16:48.363Z,24.60
2018-04-22T14:18:50.968Z,24.70
2018-04-22T14:20:53.605Z,24.60
2018-04-22T14:22:56.227Z,24.50
2018-04-22T14:24:58.816Z,24.60
2018-04-22T14:27:02.207Z,24.50
2018-04-22T14:29:05.576Z,24.50
2018-04-22T14:31:08.239Z,24.40
2018-04-22T14:33:10.837Z,24.40
2018-04-22T14:35:13.444Z,24.30
2018-04-22T14:37:16.060Z,24.20
2018-04-22T14:39:18.700Z,24.30
2018-04-22T14:41:21.316Z,24.30
2018-04-22T14:43:23.961Z,24.30
2018-04-22T14:45:38.464Z,24.20
2018-04-22T14:47:41.116Z,24.20
2018-04-22T14:49:43.719Z,24.20
2018-04-22T14:51:47.100Z,24.20
2018-04-22T14:53:49.700Z,24.20
2018-04-22T14:55:52.333Z,24.20
2018-04-22T14:57:54.982Z,24.20
2018-04-22T14:59:57.575Z,24.10
2018-04-22T15:02:00.201Z,24.10
2018-04-22T15:04:02.813Z,24.10
2018-04-22T15:06:05.429Z,24.20
2018-04-22T15:08:08.827Z,24.30
2018-04-22T15:10:12.198Z,24.20
2018-04-22T15:12:14.805Z,24.20
2018-04-22T15:14:18.152Z,24.20
2018-04-22T15:16:20.761Z,24.20
2018-04-22T15:18:24.159Z,24.20
2018-04-22T15:20:28.293Z,24.20
2018-04-22T15:22:30.908Z,24.20
2018-04-22T15:24:33.516Z,24.10
2018-04-22T15:26:36.952Z,24.00
2018-04-22T15:28:39.562Z,24.00
2018-04-22T15:30:42.911Z,24.00
2018-04-22T15:32:45.503Z,23.90
2018-04-22T15:34:48.873Z,23.70
2018-04-22T15:36:51.507Z,23.70
2018-04-22T15:38:54.132Z,23.60
2018-04-22T15:40:56.741Z,23.20
2018-04-22T15:42:59.371Z,22.90
2018-04-22T15:45:02.060Z,22.60
2018-04-22T15:47:04.663Z,22.40
2018-04-22T15:49:07.313Z,21.90
2018-04-22T15:51:09.962Z,21.50
2018-04-22T15:53:12.572Z,21.20
2018-04-22T15:55:15.163Z,20.80
2018-04-22T15:57:19.281Z,19.90
2018-04-22T15:59:21.883Z,19.90
2018-04-22T16:01:25.358Z,19.60
2018-04-22T16:03:27.960Z,19.60
2018-04-22T16:05:31.328Z,19.90
2018-04-22T16:07:33.927Z,19.90
2018-04-22T16:09:37.308Z,20.30
2018-04-22T16:11:40.736Z,20.40
2018-04-22T16:13:43.345Z,20.40
2018-04-22T16:15:45.960Z,20.40
2018-04-22T16:17:49.364Z,20.30
2018-04-22T16:19:52.000Z,20.30
2018-04-22T16:21:54.600Z,20.30
2018-04-22T16:23:57.983Z,19.90
2018-04-22T16:26:01.346Z,20.00
2018-04-22T16:28:03.957Z,19.90
2018-04-22T16:30:06.581Z,20.20
2018-04-22T16:32:09.184Z,20.30
2018-04-22T16:34:12.678Z,20.50
2018-04-22T16:36:15.282Z,20.60
2018-04-22T16:38:17.912Z,20.70
2018-04-22T16:40:20.521Z,20.80
2018-04-22T16:42:23.892Z,21.20
2018-04-22T16:44:26.506Z,21.10
2018-04-22T16:46:31.074Z,21.20
2018-04-22T16:48:35.776Z,21.20
2018-04-22T16:50:40.725Z,21.50
2018-04-22T16:52:43.465Z,21.80
2018-04-22T16:54:46.064Z,22.00
2018-04-22T16:56:48.660Z,21.90
2018-04-22T16:58:51.289Z,21.90
2018-04-22T17:00:53.928Z,21.90
2018-04-22T17:02:57.318Z,21.70
2018-04-22T17:04:59.951Z,21.60
2018-04-22T17:07:02.568Z,21.70
2018-04-22T17:09:06.680Z,21.60
2018-04-22T17:11:10.049Z,21.60
2018-04-22T17:13:12.669Z,21.50
2018-04-22T17:15:15.316Z,21.50
2018-04-22T17:17:17.917Z,21.40
2018-04-22T17:19:20.536Z,21.40
2018-04-22T17:21:23.121Z,21.30
2018-04-22T17:23:25.816Z,21.20
2018-04-22T17:25:28.416Z,21.10
2018-04-22T17:27:31.026Z,21.00
2018-04-22T17:29:33.647Z,20.90
2018-04-22T17:31:37.011Z,20.70
2018-04-22T17:33:39.634Z,20.70
2018-04-22T17:35:42.215Z,20.60
2018-04-22T17:37:44.800Z,20.40
2018-04-22T17:39:48.213Z,20.30
2018-04-22T17:41:51.562Z,20.20
2018-04-22T17:43:54.199Z,20.20
2018-04-22T17:45:56.822Z,20.10
2018-04-22T17:47:59.472Z,20.10
2018-04-22T17:50:02.852Z,19.90
2018-04-22T17:52:05.451Z,19.90
2018-04-22T17:54:08.154Z,19.90
2018-04-22T17:56:10.755Z,19.80
2018-04-22T17:58:13.371Z,19.60
2018-04-22T18:00:16.781Z,19.50
2018-04-22T18:02:19.380Z,19.50
2018-04-22T18:04:22.010Z,19.40
2018-04-22T18:06:25.419Z,19.30
2018-04-22T18:08:28.045Z,19.20
2018-04-22T18:10:30.636Z,19.20
2018-04-22T18:12:33.244Z,19.10
2018-04-22T18:14:36.297Z,19.00
2018-04-22T18:16:38.924Z,19.00
2018-04-22T18:18:41.586Z,18.90
2018-04-22T18:20:44.239Z,18.90
2018-04-22T18:22:47.677Z,18.80
2018-04-22T18:24:50.365Z,18.80
2018-04-22T18:26:52.975Z,18.80
2018-04-22T18:28:56.362Z,18.60
2018-04-22T18:30:59.003Z,18.60
2018-04-22T18:33:01.673Z,18.50
2018-04-22T18:35:04.451Z,18.40
2018-04-22T18:37:07.057Z,18.40
2018-04-22T18:39:09.695Z,18.40
2018-04-22T18:41:12.409Z,18.30
2018-04-22T18:43:15.047Z,18.30
2018-04-22T18:45:17.676Z,18.20
2018-04-22T18:47:21.041Z,18.10
2018-04-22T18:49:23.654Z,18.10
2018-04-22T18:51:26.296Z,18.10
2018-04-22T18:53:28.930Z,18.00
2018-04-22T18:55:31.557Z,18.00
2018-04-22T18:57:34.946Z,17.70
2018-04-22T18:59:37.623Z,17.70
2018-04-22T19:01:40.211Z,17.70
2018-04-22T19:03:43.603Z,17.60
2018-04-22T19:05:47.048Z,17.50
2018-04-22T19:07:49.872Z,17.50
2018-04-22T19:09:53.266Z,17.50
2018-04-22T19:11:56.644Z,17.40
2018-04-22T19:13:59.272Z,17.40
2018-04-22T19:16:01.867Z,17.40
2018-04-22T19:18:04.463Z,17.40
2018-04-22T19:20:07.116Z,17.40
2018-04-22T19:22:09.716Z,17.30
2018-04-22T19:24:12.381Z,17.30
2018-04-22T19:26:14.981Z,17.20
2018-04-22T19:28:18.350Z,17.20
2018-04-22T19:30:20.981Z,17.20
2018-04-22T19:32:23.577Z,17.10
2018-04-22T19:34:26.204Z,17.10
2018-04-22T19:36:28.795Z,17.00
2018-04-22T19:38:31.411Z,16.90
2018-04-22T19:40:34.038Z,16.80
2018-04-22T19:42:36.661Z,16.70
2018-04-22T19:44:39.276Z,16.60
2018-04-22T19:46:42.644Z,16.40
2018-04-22T19:48:45.260Z,16.40
2018-04-22T19:50:47.880Z,16.40
2018-04-22T19:52:50.474Z,16.30
2018-04-22T19:54:53.100Z,16.30
2018-04-22T19:56:55.716Z,16.30
2018-04-22T19:58:58.409Z,16.30
2018-04-22T20:01:01.788Z,16.30
2018-04-22T20:03:04.374Z,16.20
2018-04-22T20:05:06.992Z,16.20
2018-04-22T20:07:09.651Z,16.20
2018-04-22T20:09:12.700Z,16.20
2018-04-22T20:11:15.391Z,16.10
2018-04-22T20:13:19.582Z,16.00
2018-04-22T20:15:22.988Z,16.00
2018-04-22T20:17:25.582Z,16.00
2018-04-22T20:19:28.969Z,15.90
2018-04-22T20:21:33.053Z,15.80
2018-04-22T20:23:35.662Z,15.80
2018-04-22T20:25:39.040Z,15.60
2018-04-22T20:27:42.401Z,15.60
2018-04-22T20:29:45.037Z,15.60
2018-04-22T20:31:47.643Z,15.60
2018-04-22T20:33:50.235Z,15.50
2018-04-22T20:35:52.865Z,15.50
2018-04-22T20:37:55.484Z,15.50
2018-04-22T20:39:58.375Z,15.50
2018-04-22T20:42:00.964Z,15.50
2018-04-22T20:44:04.322Z,15.50
2018-04-22T20:46:06.932Z,15.40
2018-04-22T20:48:10.391Z,15.00
2018-04-22T20:50:13.016Z,15.00
2018-04-22T20:52:15.616Z,15.00
2018-04-22T20:54:18.248Z,15.00
2018-04-22T20:56:21.635Z,15.10
2018-04-22T20:58:26.068Z,15.10
2018-04-22T21:00:29.454Z,15.20
2018-04-22T21:02:32.867Z,15.20
2018-04-22T21:04:35.480Z,15.20
2018-04-22T21:06:38.107Z,15.20
2018-04-22T21:08:40.711Z,15.30
2018-04-22T21:10:43.883Z,15.30
2018-04-22T21:12:46.484Z,15.20
2018-04-22T21:14:49.102Z,15.30
2018-04-22T21:16:52.476Z,15.20
2018-04-22T21:18:55.095Z,15.20
2018-04-22T21:20:57.703Z,15.20
2018-04-22T21:23:00.296Z,15.10
2018-04-22T21:25:02.899Z,15.00
2018-04-22T21:27:06.279Z,14.90
2018-04-22T21:29:09.943Z,14.80
2018-04-22T21:31:13.379Z,14.80
2018-04-22T21:33:16.748Z,14.80
2018-04-22T21:35:19.343Z,14.80
2018-04-22T21:37:22.903Z,14.70
2018-04-22T21:39:25.493Z,14.70
2018-04-22T21:41:28.104Z,14.70
2018-04-22T21:43:30.709Z,14.70
2018-04-22T21:45:33.321Z,14.70
2018-04-22T21:47:35.935Z,14.70
2018-04-22T21:49:38.524Z,14.80
2018-04-22T21:51:41.188Z,14.80
2018-04-22T21:53:43.810Z,14.80
2018-04-22T21:55:46.396Z,14.80
2018-04-22T21:57:48.974Z,14.80
2018-04-22T21:59:51.641Z,14.80
2018-04-22T22:01:54.303Z,14.90
2018-04-22T22:03:56.883Z,14.80
2018-04-22T22:05:59.513Z,14.80
2018-04-22T22:08:02.113Z,14.80
2018-04-22T22:10:04.716Z,14.80
2018-04-22T22:12:07.339Z,14.80
2018-04-22T22:14:09.917Z,14.80
2018-04-22T22:16:12.559Z,14.80
2018-04-22T22:18:15.924Z,14.80
2018-04-22T22:20:18.519Z,14.80
2018-04-22T22:22:21.894Z,14.70
2018-04-22T22:24:24.488Z,14.60
2018-04-22T22:26:27.863Z,14.50
2018-04-22T22:28:30.717Z,14.50
2018-04-22T22:30:33.304Z,14.60
2018-04-22T22:32:35.905Z,14.60
2018-04-22T22:34:39.271Z,14.60
2018-04-22T22:36:41.912Z,14.60
2018-04-22T22:38:44.626Z,14.60
2018-04-22T22:40:48.231Z,14.60
2018-04-22T22:42:50.856Z,14.60
2018-04-22T22:44:53.456Z,14.60
2018-04-22T22:46:56.160Z,14.50
2018-04-22T22:48:58.768Z,14.50
2018-04-22T22:51:01.395Z,14.50
2018-04-22T22:53:04.040Z,14.50
2018-04-22T22:55:06.764Z,14.60
2018-04-22T22:57:09.376Z,14.60
2018-04-22T22:59:11.971Z,14.60
2018-04-22T23:01:14.580Z,14.60
2018-04-22T23:03:17.186Z,14.70
2018-04-22T23:05:19.791Z,14.70
2018-04-22T23:07:22.405Z,14.70
2018-04-22T23:09:25.020Z,14.70
2018-04-22T23:11:27.620Z,14.70
2018-04-22T23:13:30.230Z,14.60
2018-04-22T23:15:32.817Z,14.50
2018-04-22T23:17:36.197Z,14.50
2018-04-22T23:19:38.784Z,14.50
2018-04-22T23:21:42.165Z,14.40
2018-04-22T23:23:44.766Z,14.40
2018-04-22T23:25:48.120Z,14.30
2018-04-22T23:27:50.720Z,14.30
2018-04-22T23:29:54.097Z,14.30
2018-04-22T23:31:56.815Z,14.30
2018-04-22T23:33:59.395Z,14.30
2018-04-22T23:36:01.982Z,14.30
2018-04-22T23:38:04.587Z,14.30
2018-04-22T23:40:07.169Z,14.40
2018-04-22T23:42:09.812Z,14.40
2018-04-22T23:44:12.403Z,14.50
2018-04-22T23:46:15.116Z,14.50
2018-04-22T23:48:18.507Z,14.50
2018-04-22T23:50:21.861Z,14.50
2018-04-22T23:52:24.476Z,14.50
2018-04-22T23:54:27.832Z,14.60
2018-04-22T23:56:30.560Z,14.60
2018-04-22T23:58:33.204Z,14.60
